createdAt,value
2022-08-25T00:00:17.102Z,22.8
2022-08-25T00:01:33.380Z,26.4
2022-08-25T00:02:49.689Z,23.8
2022-08-25T00:04:05.973Z,25.7
2022-08-25T00:05:22.276Z,24.9
2022-08-25T00:06:38.562Z,26.1
2022-08-25T00:09:11.142Z,23.5
2022-08-25T00:10:27.440Z,26
2022-08-25T00:11:43.743Z,24.5
2022-08-25T00:12:59.054Z,27.3
2022-08-25T00:14:15.350Z,24.5
2022-08-25T00:15:31.629Z,24.8
2022-08-25T00:16:47.927Z,26.6
2022-08-25T00:18:04.230Z,24.8
2022-08-25T00:19:20.512Z,24.5
2022-08-25T00:20:36.822Z,25.3
2022-08-25T00:21:53.105Z,24.1
2022-08-25T00:23:08.429Z,26.6
2022-08-25T00:24:24.721Z,27.8
2022-08-25T00:25:40.027Z,25.5
2022-08-25T00:26:56.331Z,26.8
2022-08-25T00:28:12.615Z,25.9
2022-08-25T00:29:28.919Z,25.7
2022-08-25T00:30:45.201Z,24.8
2022-08-25T00:32:01.500Z,25.9
2022-08-25T00:33:17.789Z,27.1
2022-08-25T00:34:34.085Z,28.9
2022-08-25T00:35:50.372Z,29.8
2022-08-25T00:37:06.679Z,27
2022-08-25T00:38:22.969Z,30.4
2022-08-25T00:39:39.269Z,30.6
2022-08-25T00:40:55.561Z,31.3
2022-08-25T00:42:10.872Z,29.6
2022-08-25T00:43:27.167Z,29
2022-08-25T00:44:43.463Z,30
2022-08-25T00:45:59.759Z,30.4
2022-08-25T00:47:16.056Z,30.9
2022-08-25T00:48:32.331Z,30.9
2022-08-25T00:49:48.632Z,30.5
2022-08-25T00:51:04.916Z,32.1
2022-08-25T00:52:21.209Z,32.1
2022-08-25T00:53:37.520Z,31.5
2022-08-25T00:54:53.807Z,32.3
2022-08-25T00:56:10.102Z,32.1
2022-08-25T00:57:26.405Z,30.4
2022-08-25T00:58:41.704Z,33.3
2022-08-25T00:59:57.995Z,31.5
2022-08-25T01:01:14.284Z,31.1
2022-08-25T01:02:30.592Z,29.7
2022-08-25T01:03:46.875Z,32.9
2022-08-25T01:05:03.167Z,33.4
2022-08-25T01:06:19.476Z,33.6
2022-08-25T01:07:35.758Z,33.9
2022-08-25T01:08:52.059Z,34.9
2022-08-25T01:10:08.360Z,33.6
2022-08-25T01:11:24.640Z,33.9
2022-08-25T01:12:40.930Z,34.8
2022-08-25T01:13:57.236Z,34
2022-08-25T01:15:12.547Z,34.3
2022-08-25T01:16:28.844Z,36.3
2022-08-25T01:17:45.126Z,35.9
2022-08-25T01:19:01.421Z,34.2
2022-08-25T01:20:17.717Z,35.1
2022-08-25T01:21:34.013Z,36.9
2022-08-25T01:22:50.319Z,36.3
2022-08-25T01:24:06.602Z,36
2022-08-25T01:25:22.898Z,36.8
2022-08-25T01:26:39.198Z,36.7
2022-08-25T01:27:55.481Z,37.8
2022-08-25T01:29:11.786Z,38.7
2022-08-25T01:30:28.065Z,39.5
2022-08-25T01:32:59.685Z,36
2022-08-25T01:34:15.980Z,35
2022-08-25T01:35:32.265Z,34.8
2022-08-25T01:36:48.553Z,35.7
2022-08-25T01:38:04.862Z,36.1
2022-08-25T01:39:21.141Z,33.8
2022-08-25T01:40:37.438Z,33.6
2022-08-25T01:41:53.744Z,35.5
2022-08-25T01:43:10.022Z,34.1
2022-08-25T01:44:26.326Z,36.4
2022-08-25T01:45:42.621Z,35
2022-08-25T01:46:58.907Z,37.3
2022-08-25T01:48:14.217Z,35.3
2022-08-25T01:50:46.815Z,38.3
2022-08-25T01:52:03.103Z,39.1
2022-08-25T01:53:19.409Z,39.6
2022-08-25T01:54:35.711Z,39.8
2022-08-25T01:55:51.982Z,37.5
2022-08-25T01:57:08.284Z,39.6
2022-08-25T01:58:24.577Z,39.6
2022-08-25T01:59:40.866Z,43.5
2022-08-25T02:00:57.160Z,40.6
2022-08-25T02:03:29.752Z,39
2022-08-25T02:06:01.350Z,37.5
2022-08-25T02:07:16.682Z,37.8
2022-08-25T02:08:31.986Z,37.3
2022-08-25T02:09:48.286Z,37.2
2022-08-25T02:11:04.574Z,38.4
2022-08-25T02:12:20.868Z,40
2022-08-25T02:13:37.161Z,41.4
2022-08-25T02:14:53.459Z,38.2
2022-08-25T02:16:09.746Z,39.3
2022-08-25T02:17:26.034Z,38.1
2022-08-25T02:18:42.350Z,38.4
2022-08-25T02:19:58.627Z,39.2
2022-08-25T02:21:13.952Z,39.2
2022-08-25T02:22:29.261Z,39.4
2022-08-25T02:23:45.550Z,38.9
2022-08-25T02:26:18.147Z,41.1
2022-08-25T02:27:33.459Z,41.5
2022-08-25T02:28:49.753Z,43.8
2022-08-25T02:30:06.045Z,41.6
2022-08-25T02:31:22.339Z,41.7
2022-08-25T02:33:54.936Z,43.8
2022-08-25T02:35:11.229Z,42.6
2022-08-25T02:36:27.522Z,43.5
2022-08-25T02:37:42.839Z,44.7
2022-08-25T02:38:58.137Z,43.4
2022-08-25T02:41:30.720Z,44.8
2022-08-25T02:42:47.022Z,41.2
2022-08-25T02:44:03.311Z,43.1
2022-08-25T02:45:19.609Z,42.5
2022-08-25T02:46:35.902Z,43.7
2022-08-25T02:47:52.205Z,42.3
2022-08-25T02:49:08.501Z,43.3
2022-08-25T02:50:24.788Z,42.7
2022-08-25T02:51:41.093Z,40.4
2022-08-25T02:52:57.385Z,36.8
2022-08-25T02:54:13.664Z,36
2022-08-25T02:55:28.976Z,38.4
2022-08-25T02:56:45.280Z,41.6
2022-08-25T02:58:01.574Z,38.2
2022-08-25T02:59:17.871Z,41
2022-08-25T03:00:34.154Z,37.7
2022-08-25T03:01:50.447Z,37.7
2022-08-25T03:03:06.749Z,40.7
2022-08-25T03:04:23.039Z,36.8
2022-08-25T03:05:38.347Z,38.8
2022-08-25T03:06:53.672Z,38.4
2022-08-25T03:09:26.265Z,40.7
2022-08-25T03:11:58.838Z,40.3
2022-08-25T03:13:15.131Z,37.9
2022-08-25T03:14:31.421Z,38.7
2022-08-25T03:17:04.023Z,42.3
2022-08-25T03:19:36.600Z,41.4
2022-08-25T03:20:52.910Z,42.2
2022-08-25T03:22:09.193Z,43.1
2022-08-25T03:23:24.510Z,43.5
2022-08-25T03:24:39.829Z,43.7
2022-08-25T03:25:55.129Z,46.7
2022-08-25T03:27:11.419Z,48
2022-08-25T03:28:27.722Z,49
2022-08-25T03:29:43.966Z,49
2022-08-25T03:31:00.265Z,50.5
2022-08-25T03:32:16.541Z,53.1
2022-08-25T03:33:32.810Z,47.7
2022-08-25T03:34:49.047Z,54.2
2022-08-25T03:36:05.274Z,51.9
2022-08-25T03:37:21.586Z,52.9
2022-08-25T03:38:36.847Z,56.2
2022-08-25T03:39:52.101Z,56.7
2022-08-25T03:41:08.338Z,54.6
2022-08-25T03:42:24.584Z,57.6
2022-08-25T03:43:40.827Z,53.7
2022-08-25T03:44:57.076Z,52.3
2022-08-25T03:46:13.303Z,52.6
2022-08-25T03:47:29.548Z,56.2
2022-08-25T03:50:02.037Z,53.5
2022-08-25T03:51:18.264Z,52.3
2022-08-25T03:52:34.499Z,50.3
2022-08-25T03:53:50.746Z,52.5
2022-08-25T03:55:06.987Z,53.5
2022-08-25T03:56:22.241Z,57.1
2022-08-25T03:57:38.474Z,52.4
2022-08-25T03:58:54.716Z,48.4
2022-08-25T04:00:10.972Z,50.6
2022-08-25T04:01:27.211Z,48
2022-08-25T04:02:43.447Z,49.1
2022-08-25T04:03:59.685Z,51
2022-08-25T04:05:15.918Z,53
2022-08-25T04:06:32.155Z,51.6
2022-08-25T04:07:48.407Z,52.7
2022-08-25T04:09:04.645Z,54.5
2022-08-25T04:10:20.894Z,53.7
2022-08-25T04:11:37.130Z,51.1
2022-08-25T04:12:52.374Z,53.1
2022-08-25T04:14:08.627Z,51.1
2022-08-25T04:16:41.095Z,50.9
2022-08-25T04:17:57.334Z,50.5
2022-08-25T04:20:29.815Z,53.3
2022-08-25T04:21:46.067Z,50.4
2022-08-25T04:23:02.310Z,51.3
2022-08-25T04:24:18.545Z,50.3
2022-08-25T04:25:34.779Z,49.1
2022-08-25T04:26:51.030Z,51.5
2022-08-25T04:28:07.273Z,47.8
2022-08-25T04:29:22.525Z,53.8
2022-08-25T04:30:38.761Z,49.6
2022-08-25T04:31:55.005Z,52.5
2022-08-25T04:33:11.229Z,51.2
2022-08-25T04:34:27.489Z,53.5
2022-08-25T04:35:43.725Z,53.7
2022-08-25T04:36:59.952Z,51.1
2022-08-25T04:38:16.211Z,52.5
2022-08-25T04:39:32.436Z,51.8
2022-08-25T04:40:48.679Z,51
2022-08-25T04:43:21.155Z,51.5
2022-08-25T04:45:53.638Z,52.5
2022-08-25T04:47:08.902Z,49.2
2022-08-25T04:48:24.162Z,50.6
2022-08-25T04:49:40.388Z,49
2022-08-25T04:50:56.635Z,45.9
2022-08-25T04:52:12.876Z,50.5
2022-08-25T04:53:29.125Z,48.1
2022-08-25T04:54:45.360Z,43.3
2022-08-25T04:56:01.607Z,46.1
2022-08-25T04:58:34.082Z,44.7
2022-08-25T05:01:06.563Z,47.7
2022-08-25T05:02:22.790Z,47.5
2022-08-25T05:03:38.073Z,46.4
2022-08-25T05:04:53.312Z,44.6
2022-08-25T05:06:09.552Z,49.9
2022-08-25T05:07:25.790Z,47.3
2022-08-25T05:08:42.042Z,51.5
2022-08-25T05:09:58.272Z,46.4
2022-08-25T05:11:14.520Z,45.4
2022-08-25T05:12:30.763Z,45.9
2022-08-25T05:13:47.001Z,44.7
2022-08-25T05:15:03.246Z,43.6
2022-08-25T05:16:19.474Z,42.8
2022-08-25T05:17:34.740Z,42.6
2022-08-25T05:18:49.989Z,41.9
2022-08-25T05:20:06.243Z,39.9
2022-08-25T05:21:22.475Z,40
2022-08-25T05:22:38.711Z,40.8
2022-08-25T05:23:54.963Z,40.7
2022-08-25T05:25:11.196Z,42.7
2022-08-25T05:26:27.441Z,39.7
2022-08-25T05:27:43.681Z,40.4
2022-08-25T05:28:59.922Z,39.1
2022-08-25T05:30:16.153Z,38.1
2022-08-25T05:31:31.424Z,37.6
2022-08-25T05:32:46.668Z,36.2
2022-08-25T05:34:02.919Z,37.5
2022-08-25T05:36:35.394Z,38.7
2022-08-25T05:37:51.646Z,39
2022-08-25T05:39:07.880Z,37.9
2022-08-25T05:40:24.108Z,36.5
2022-08-25T05:41:40.365Z,38.2
2022-08-25T05:44:12.842Z,37.5
2022-08-25T05:45:29.081Z,33.9
2022-08-25T05:46:45.326Z,35.7
2022-08-25T05:48:00.586Z,36.3
2022-08-25T05:49:15.829Z,36.5
2022-08-25T05:50:32.073Z,34.7
2022-08-25T05:51:48.325Z,30.5
2022-08-25T05:53:04.557Z,35.3
2022-08-25T05:54:20.791Z,33.7
2022-08-25T05:55:37.045Z,33.5
2022-08-25T05:56:53.283Z,31.8
2022-08-25T05:58:09.521Z,33.1
2022-08-25T05:59:25.764Z,34.3
2022-08-25T06:00:42.008Z,32.9
2022-08-25T06:01:57.262Z,32.6
2022-08-25T06:03:12.525Z,32
2022-08-25T06:04:28.762Z,33.9
2022-08-25T06:05:44.994Z,34.5
2022-08-25T06:07:01.234Z,32.7
2022-08-25T06:08:17.481Z,31.8
2022-08-25T06:09:33.712Z,34.4
2022-08-25T06:10:49.957Z,31.7
2022-08-25T06:12:06.189Z,33.2
2022-08-25T06:13:22.433Z,30.4
2022-08-25T06:14:38.672Z,32
2022-08-25T06:15:54.920Z,32.3
2022-08-25T06:17:11.163Z,31.5
2022-08-25T06:18:27.388Z,31
2022-08-25T06:19:42.660Z,27.9
2022-08-25T06:20:58.898Z,29
2022-08-25T06:22:15.126Z,31.5
2022-08-25T06:23:31.374Z,30.6
2022-08-25T06:24:47.615Z,31.3
2022-08-25T06:26:03.845Z,30.1
2022-08-25T06:27:20.104Z,31
2022-08-25T06:28:36.331Z,30
2022-08-25T06:29:52.584Z,31.1
2022-08-25T06:31:08.813Z,31
2022-08-25T06:32:25.059Z,32.1
2022-08-25T06:33:41.294Z,29.6
2022-08-25T06:34:57.544Z,29.8
2022-08-25T06:37:29.036Z,29.9
2022-08-25T06:38:45.276Z,30.7
2022-08-25T06:40:01.516Z,32
2022-08-25T06:41:17.741Z,32.8
2022-08-25T06:42:33.007Z,30
2022-08-25T06:45:05.497Z,29.9
2022-08-25T06:46:21.735Z,31.9
2022-08-25T06:47:37.969Z,29.6
2022-08-25T06:48:54.218Z,30.6
2022-08-25T06:50:10.461Z,31.1
2022-08-25T06:51:26.692Z,30.5
2022-08-25T06:52:42.935Z,30.8
2022-08-25T06:53:59.182Z,30
2022-08-25T06:55:15.418Z,29.9
2022-08-25T06:56:31.648Z,32.6
2022-08-25T06:57:47.893Z,30.2
2022-08-25T06:59:03.140Z,31
2022-08-25T07:00:19.390Z,31.5
2022-08-25T07:01:35.631Z,30.9
2022-08-25T07:02:51.868Z,31.6
2022-08-25T07:05:24.359Z,27
2022-08-25T07:06:40.583Z,28.2
2022-08-25T07:07:56.826Z,27.2
2022-08-25T07:09:13.082Z,26.3
2022-08-25T07:10:29.308Z,27.1
2022-08-25T07:11:45.554Z,24
2022-08-25T07:13:01.788Z,25.1
2022-08-25T07:14:18.040Z,27.5
2022-08-25T07:15:33.294Z,26.4
2022-08-25T07:16:49.532Z,27
2022-08-25T07:18:05.779Z,26.8
2022-08-25T07:19:22.009Z,25.7
2022-08-25T07:20:38.250Z,24.4
2022-08-25T07:23:10.730Z,25.8
2022-08-25T07:25:43.217Z,25.3
2022-08-25T07:26:58.479Z,25.2
2022-08-25T07:28:13.718Z,23.5
2022-08-25T07:29:29.975Z,25.4
2022-08-25T07:30:46.213Z,26.9
2022-08-25T07:32:02.451Z,23.9
2022-08-25T07:33:18.691Z,25.4
2022-08-25T07:34:34.926Z,23.7
2022-08-25T07:35:51.163Z,23.5
2022-08-25T07:37:07.414Z,23
2022-08-25T07:38:23.647Z,23.7
2022-08-25T07:39:39.883Z,23.9
2022-08-25T07:40:55.142Z,24.5
2022-08-25T07:42:10.405Z,23.4
2022-08-25T07:43:26.641Z,24
2022-08-25T07:45:59.122Z,21.2
2022-08-25T07:47:15.376Z,22.7
2022-08-25T07:48:31.599Z,21.7
2022-08-25T07:49:47.841Z,22
2022-08-25T07:51:04.088Z,21.8
2022-08-25T07:52:20.318Z,21.7
2022-08-25T07:53:36.559Z,22.1
2022-08-25T07:54:52.813Z,20.2
2022-08-25T07:56:09.038Z,20.5
2022-08-25T07:57:25.278Z,21.8
2022-08-25T07:58:40.548Z,22
2022-08-25T07:59:56.780Z,22.7
2022-08-25T08:01:13.024Z,23.5
2022-08-25T08:02:29.266Z,19.7
2022-08-25T08:03:45.509Z,23.2
2022-08-25T08:05:01.751Z,23
2022-08-25T08:06:17.980Z,20.5
2022-08-25T08:07:34.222Z,21.7
2022-08-25T08:08:50.463Z,20.3
2022-08-25T08:10:06.707Z,19.5
2022-08-25T08:11:22.945Z,20.8
2022-08-25T08:13:55.414Z,22.6
2022-08-25T08:15:10.687Z,22.5
2022-08-25T08:16:26.914Z,20.6
2022-08-25T08:17:43.158Z,19.9
2022-08-25T08:18:59.409Z,18.9
2022-08-25T08:20:15.643Z,21.7
2022-08-25T08:21:31.876Z,18.4
2022-08-25T08:22:48.118Z,21.8
2022-08-25T08:24:04.366Z,19.4
2022-08-25T08:25:20.606Z,20.1
2022-08-25T08:26:36.835Z,19.9
2022-08-25T08:27:53.071Z,21.2
2022-08-25T08:29:09.313Z,22.8
2022-08-25T08:30:25.565Z,19.5
2022-08-25T08:31:40.828Z,20.3
2022-08-25T08:32:57.064Z,20.9
2022-08-25T08:34:13.307Z,20.7
2022-08-25T08:35:29.539Z,20.3
2022-08-25T08:36:45.779Z,22.5
2022-08-25T08:38:02.020Z,19.8
2022-08-25T08:39:18.257Z,18.5
2022-08-25T08:40:34.502Z,20.9
2022-08-25T08:41:50.734Z,21.5
2022-08-25T08:43:06.975Z,21.1
2022-08-25T08:44:23.228Z,19
2022-08-25T08:45:39.465Z,19.4
2022-08-25T08:46:55.699Z,20.4
2022-08-25T08:48:10.959Z,21.1
2022-08-25T08:49:27.203Z,18.6
2022-08-25T08:50:43.446Z,20.6
2022-08-25T08:51:59.668Z,21.4
2022-08-25T08:54:32.160Z,20.5
2022-08-25T08:55:48.389Z,17.9
2022-08-25T08:57:04.645Z,21.3
2022-08-25T08:58:20.872Z,18
2022-08-25T08:59:37.110Z,19.9
2022-08-25T09:00:53.351Z,20.4
2022-08-25T09:02:09.606Z,21.3
2022-08-25T09:03:25.828Z,19.8
2022-08-25T09:04:41.097Z,20.5
2022-08-25T09:05:57.327Z,20.9
2022-08-25T09:07:13.581Z,19.5
2022-08-25T09:08:29.823Z,18.5
2022-08-25T09:09:46.054Z,19.5
2022-08-25T09:12:18.536Z,21.7
2022-08-25T09:13:34.774Z,20
2022-08-25T09:14:51.007Z,19.5
2022-08-25T09:16:07.249Z,19.5
2022-08-25T09:17:23.505Z,18.3
2022-08-25T09:18:39.740Z,18.7
2022-08-25T09:19:55.976Z,20
2022-08-25T09:21:11.223Z,18
2022-08-25T09:22:27.467Z,18.2
2022-08-25T09:23:43.706Z,19.9
2022-08-25T09:24:59.961Z,18.2
2022-08-25T09:26:16.185Z,18.7
2022-08-25T09:27:32.438Z,20.1
2022-08-25T09:28:48.672Z,19.6
2022-08-25T09:30:04.910Z,18.9
2022-08-25T09:32:37.388Z,19.9
2022-08-25T09:33:53.626Z,20.1
2022-08-25T09:35:09.885Z,18
2022-08-25T09:36:26.111Z,16.4
2022-08-25T09:37:41.365Z,21.7
2022-08-25T09:40:13.860Z,19.1
2022-08-25T09:41:30.091Z,19.5
2022-08-25T09:42:46.344Z,21.2
2022-08-25T09:44:02.574Z,21.6
2022-08-25T09:45:18.822Z,21.3
2022-08-25T09:46:35.044Z,20.8
2022-08-25T09:47:51.292Z,21.9
2022-08-25T09:49:07.528Z,22.2
2022-08-25T09:50:23.785Z,22
2022-08-25T09:51:40.011Z,20.3
2022-08-25T09:52:56.264Z,22.1
2022-08-25T09:55:27.755Z,20.1
2022-08-25T09:56:43.021Z,20.7
2022-08-25T09:57:58.271Z,22.1
2022-08-25T09:59:14.516Z,23.3
2022-08-25T10:00:30.759Z,25.1
2022-08-25T10:01:46.999Z,18.7
2022-08-25T10:03:03.225Z,21.1
2022-08-25T10:04:19.463Z,21.9
2022-08-25T10:05:35.713Z,22.1
2022-08-25T10:06:51.944Z,22.3
2022-08-25T10:08:08.188Z,19.9
2022-08-25T10:09:24.431Z,20.5
2022-08-25T10:10:39.689Z,24
2022-08-25T10:11:54.957Z,22.5
2022-08-25T10:13:11.194Z,22.5
2022-08-25T10:14:27.428Z,20.1
2022-08-25T10:15:43.669Z,20.8
2022-08-25T10:16:59.906Z,20
2022-08-25T10:18:16.159Z,22.9
2022-08-25T10:19:32.401Z,23.9
2022-08-25T10:20:48.638Z,20.4
2022-08-25T10:22:04.879Z,24.5
2022-08-25T10:23:21.120Z,23.2
2022-08-25T10:24:37.355Z,19.7
2022-08-25T10:25:53.603Z,20.3
2022-08-25T10:27:09.835Z,22.2
2022-08-25T10:28:25.096Z,22.7
2022-08-25T10:29:41.321Z,20.7
2022-08-25T10:30:57.564Z,22.4
2022-08-25T10:32:13.814Z,21.1
2022-08-25T10:33:30.056Z,21.9
2022-08-25T10:34:46.284Z,24
2022-08-25T10:36:02.529Z,24.7
2022-08-25T10:37:18.776Z,21.9
2022-08-25T10:38:35.003Z,22.8
2022-08-25T10:41:07.500Z,23.9
2022-08-25T10:42:23.726Z,21.6
2022-08-25T10:43:39.967Z,24.1
2022-08-25T10:44:55.238Z,22
2022-08-25T10:46:11.481Z,21.6
2022-08-25T10:47:27.707Z,22.4
2022-08-25T10:48:43.949Z,21
2022-08-25T10:50:00.199Z,22.9
2022-08-25T10:51:16.440Z,24.2
2022-08-25T10:52:32.675Z,24.5
2022-08-25T10:53:48.906Z,20.3
2022-08-25T10:55:05.161Z,21.3
2022-08-25T10:56:21.384Z,23.8
2022-08-25T10:57:37.624Z,23.8
2022-08-25T10:58:52.896Z,21.9
2022-08-25T11:00:09.140Z,22.7
2022-08-25T11:01:25.375Z,21.2
2022-08-25T11:02:41.611Z,21.7
2022-08-25T11:03:57.849Z,23.3
2022-08-25T11:05:14.099Z,25.5
2022-08-25T11:06:30.339Z,23.6
2022-08-25T11:07:46.571Z,23
2022-08-25T11:09:02.823Z,21.7
2022-08-25T11:11:35.306Z,24.3
2022-08-25T11:12:51.536Z,19.7
2022-08-25T11:14:07.781Z,21.4
2022-08-25T11:15:23.040Z,22.1
2022-08-25T11:17:55.515Z,18.7
2022-08-25T11:19:11.757Z,19.5
2022-08-25T11:20:28.002Z,19.5
2022-08-25T11:21:44.232Z,21.3
2022-08-25T11:23:00.478Z,21.1
2022-08-25T11:24:16.720Z,22.2
2022-08-25T11:25:32.955Z,19.7
2022-08-25T11:26:49.191Z,20.1
2022-08-25T11:29:21.673Z,19.6
2022-08-25T11:30:36.930Z,23.3
2022-08-25T11:31:52.193Z,22.8
2022-08-25T11:33:08.433Z,20.8
2022-08-25T11:34:24.676Z,24.5
2022-08-25T11:35:40.909Z,20.7
2022-08-25T11:36:57.160Z,21.5
2022-08-25T11:38:13.404Z,19.7
2022-08-25T11:39:29.633Z,22.1
2022-08-25T11:40:45.871Z,21.2
2022-08-25T11:42:02.118Z,22.2
2022-08-25T11:43:18.368Z,20.9
2022-08-25T11:44:33.616Z,19.2
2022-08-25T11:45:48.885Z,20.4
2022-08-25T11:47:05.107Z,20.2
2022-08-25T11:48:21.365Z,19.5
2022-08-25T11:49:37.597Z,20.6
2022-08-25T11:50:53.845Z,21.5
2022-08-25T11:52:10.072Z,22.5
2022-08-25T11:53:26.323Z,20.6
2022-08-25T11:54:42.564Z,23.8
2022-08-25T11:55:58.798Z,21
2022-08-25T11:57:15.045Z,23.5
2022-08-25T11:58:31.284Z,21.6
2022-08-25T11:59:47.511Z,25.2
2022-08-25T12:01:03.755Z,23
2022-08-25T12:02:19.017Z,23.5
2022-08-25T12:03:35.261Z,22.6
2022-08-25T12:04:51.500Z,21.5
2022-08-25T12:06:07.737Z,20.9
2022-08-25T12:07:23.976Z,23.6
2022-08-25T12:08:40.228Z,21.5
2022-08-25T12:09:56.470Z,23.3
2022-08-25T12:12:28.950Z,24.8
2022-08-25T12:13:45.172Z,23.7
2022-08-25T12:15:01.415Z,21
2022-08-25T12:16:17.670Z,21.8
2022-08-25T12:17:33.902Z,21.3
2022-08-25T12:18:49.159Z,21.4
2022-08-25T12:20:05.403Z,20
2022-08-25T12:21:21.649Z,21.1
2022-08-25T12:22:37.878Z,25.9
2022-08-25T12:23:54.118Z,23.3
2022-08-25T12:25:10.368Z,23.8
2022-08-25T12:26:26.607Z,21.8
2022-08-25T12:27:42.835Z,22.7
2022-08-25T12:28:59.091Z,23.8
2022-08-25T12:30:15.321Z,22.2
2022-08-25T12:31:31.570Z,21.8
2022-08-25T12:32:47.799Z,22.4
2022-08-25T12:35:20.279Z,21.5
2022-08-25T12:36:35.541Z,23.6
2022-08-25T12:37:51.784Z,24.2
2022-08-25T12:39:08.016Z,24.4
2022-08-25T12:40:24.257Z,20.3
2022-08-25T12:42:56.747Z,18.5
2022-08-25T12:44:12.988Z,22.6
2022-08-25T12:45:29.215Z,22.7
2022-08-25T12:46:45.465Z,20.2
2022-08-25T12:48:01.707Z,25.4
2022-08-25T12:49:17.937Z,24
2022-08-25T12:50:34.180Z,24.4
2022-08-25T12:51:50.418Z,19.6
2022-08-25T12:53:05.686Z,22.9
2022-08-25T12:54:21.920Z,22.3
2022-08-25T12:55:38.155Z,21.3
2022-08-25T12:56:54.395Z,20
2022-08-25T12:58:10.644Z,20.7
2022-08-25T12:59:26.888Z,24.3
2022-08-25T13:00:43.126Z,22.2
2022-08-25T13:01:59.356Z,25.9
2022-08-25T13:03:15.607Z,21.1
2022-08-25T13:04:31.840Z,22
2022-08-25T13:05:48.086Z,22.3
2022-08-25T13:07:04.335Z,20.6
2022-08-25T13:08:20.563Z,21.8
2022-08-25T13:09:35.833Z,23.9
2022-08-25T13:10:52.064Z,28.4
2022-08-25T13:13:24.545Z,19.8
2022-08-25T13:14:40.777Z,23.1
2022-08-25T13:15:57.016Z,23.3
2022-08-25T13:17:13.262Z,22.2
2022-08-25T13:18:29.513Z,23.4
2022-08-25T13:19:45.743Z,24.4
2022-08-25T13:21:01.992Z,23.4
2022-08-25T13:22:18.238Z,22.3
2022-08-25T13:23:34.461Z,20.2
2022-08-25T13:24:50.713Z,22.3
2022-08-25T13:26:05.958Z,20.2
2022-08-25T13:27:22.198Z,21.7
2022-08-25T13:28:38.442Z,26
2022-08-25T13:29:54.696Z,24
2022-08-25T13:31:10.938Z,23.7
2022-08-25T13:32:27.165Z,24.6
2022-08-25T13:33:43.407Z,24.1
2022-08-25T13:34:59.653Z,24.3
2022-08-25T13:36:15.886Z,23.1
2022-08-25T13:37:32.139Z,23.5
2022-08-25T13:38:48.000Z,24.9
2022-08-25T13:40:04.602Z,25.2
2022-08-25T13:41:20.845Z,22.5
2022-08-25T13:42:36.102Z,24.1
2022-08-25T13:43:52.353Z,20.8
2022-08-25T13:46:24.829Z,23.6
2022-08-25T13:47:41.075Z,26
2022-08-25T13:50:13.555Z,24.6
2022-08-25T13:51:29.800Z,24.8
2022-08-25T13:52:46.032Z,23.9
2022-08-25T13:54:02.279Z,25
2022-08-25T13:55:18.516Z,25.4
2022-08-25T13:56:34.756Z,24.3
2022-08-25T13:57:50.984Z,20.7
2022-08-25T13:59:06.251Z,23.4
2022-08-25T14:00:22.495Z,22.2
2022-08-25T14:01:38.733Z,23.3
2022-08-25T14:02:54.972Z,24.1
2022-08-25T14:04:11.205Z,27.7
2022-08-25T14:05:27.443Z,22.8
2022-08-25T14:06:43.691Z,27.7
2022-08-25T14:07:59.925Z,24.9
2022-08-25T14:09:16.183Z,22.4
2022-08-25T14:10:32.414Z,21.5
2022-08-25T14:11:48.662Z,26
2022-08-25T14:14:21.128Z,22.8
2022-08-25T14:15:36.390Z,23.2
2022-08-25T14:16:52.628Z,25.2
2022-08-25T14:18:08.875Z,21.7
2022-08-25T14:19:25.110Z,24.5
2022-08-25T14:21:57.587Z,19.4
2022-08-25T14:23:13.839Z,24.6
2022-08-25T14:24:30.080Z,33.7
2022-08-25T14:25:46.321Z,23.6
2022-08-25T14:27:02.557Z,20.7
2022-08-25T14:28:18.791Z,23.6
2022-08-25T14:29:35.032Z,25.9
2022-08-25T14:30:51.279Z,24.7
2022-08-25T14:32:06.532Z,24.4
2022-08-25T14:34:39.015Z,27.4
2022-08-25T14:37:10.527Z,24.1
2022-08-25T14:38:25.789Z,21.5
2022-08-25T14:39:41.037Z,23.3
2022-08-25T14:40:57.279Z,20.6
2022-08-25T14:42:13.518Z,19.4
2022-08-25T14:43:29.750Z,22.3
2022-08-25T14:44:45.990Z,21.7
2022-08-25T14:46:02.236Z,23.2
2022-08-25T14:47:18.479Z,20.8
2022-08-25T14:48:34.717Z,23.1
2022-08-25T14:49:50.952Z,27.4
2022-08-25T14:51:07.194Z,24.1
2022-08-25T14:52:22.473Z,23.9
2022-08-25T14:53:37.714Z,22.6
2022-08-25T14:54:53.954Z,22
2022-08-25T14:56:10.203Z,22.1
2022-08-25T14:57:26.443Z,21.4
2022-08-25T14:59:58.925Z,20.1
2022-08-25T15:01:15.151Z,21.2
2022-08-25T15:02:31.391Z,22.6
2022-08-25T15:03:47.645Z,22.4
2022-08-25T15:05:03.885Z,24.5
2022-08-25T15:06:20.117Z,24.6
2022-08-25T15:07:36.372Z,22.3
2022-08-25T15:08:52.609Z,22
2022-08-25T15:10:07.864Z,24.6
2022-08-25T15:11:24.107Z,24
2022-08-25T15:12:40.347Z,27.2
2022-08-25T15:13:55.597Z,22.6
2022-08-25T15:15:11.850Z,22.8
2022-08-25T15:16:28.082Z,23.8
2022-08-25T15:17:44.318Z,24.6
2022-08-25T15:19:00.558Z,21.6
2022-08-25T15:20:16.797Z,21.2
2022-08-25T15:21:33.050Z,22.7
2022-08-25T15:22:49.274Z,23.4
2022-08-25T15:24:05.525Z,19.6
2022-08-25T15:25:21.770Z,24.8
2022-08-25T15:26:38.003Z,21.8
2022-08-25T15:27:54.238Z,22.2
2022-08-25T15:29:10.484Z,21.2
2022-08-25T15:30:25.745Z,21.9
2022-08-25T15:31:41.981Z,24.3
2022-08-25T15:32:58.232Z,24.1
2022-08-25T15:34:14.466Z,20.4
2022-08-25T15:35:30.705Z,21.3
2022-08-25T15:36:46.953Z,18.9
2022-08-25T15:38:03.179Z,21.9
2022-08-25T15:39:19.419Z,19.4
2022-08-25T15:40:35.672Z,21.1
2022-08-25T15:41:51.899Z,23.3
2022-08-25T15:43:08.146Z,20.3
2022-08-25T15:44:24.391Z,18.7
2022-08-25T15:45:40.628Z,21
2022-08-25T15:46:55.880Z,20.8
2022-08-25T15:48:12.113Z,19.5
2022-08-25T15:49:28.363Z,22.7
2022-08-25T15:50:44.599Z,23.9
2022-08-25T15:53:17.092Z,20
2022-08-25T15:54:33.322Z,16.7
2022-08-25T15:55:49.559Z,20.2
2022-08-25T15:57:05.815Z,19.8
2022-08-25T15:58:22.056Z,23
2022-08-25T16:00:54.523Z,20.7
2022-08-25T16:02:10.762Z,21.6
2022-08-25T16:03:26.027Z,18.3
2022-08-25T16:04:42.261Z,19
2022-08-25T16:05:58.501Z,19.1
2022-08-25T16:07:14.747Z,21.3
2022-08-25T16:08:30.987Z,23
2022-08-25T16:09:47.229Z,19.6
2022-08-25T16:11:03.467Z,23.5
2022-08-25T16:12:19.713Z,20.2
2022-08-25T16:13:35.957Z,21.1
2022-08-25T16:14:52.181Z,26.9
2022-08-25T16:16:08.426Z,18.9
2022-08-25T16:17:24.662Z,20.4
2022-08-25T16:18:40.904Z,21.3
2022-08-25T16:19:56.169Z,22.8
2022-08-25T16:21:12.416Z,20
2022-08-25T16:23:44.881Z,24.2
2022-08-25T16:26:17.363Z,21.7
2022-08-25T16:27:32.621Z,22.1
2022-08-25T16:28:47.885Z,24.3
2022-08-25T16:30:04.125Z,18.8
2022-08-25T16:31:20.364Z,20.8
2022-08-25T16:32:36.604Z,20.6
2022-08-25T16:33:52.851Z,20.1
2022-08-25T16:35:09.077Z,20.2
2022-08-25T16:36:25.332Z,20.3
2022-08-25T16:38:57.802Z,22.1
2022-08-25T16:40:14.058Z,19.9
2022-08-25T16:41:30.288Z,18.4
2022-08-25T16:42:46.531Z,21.7
2022-08-25T16:44:02.764Z,19.8
2022-08-25T16:45:18.034Z,18.2
2022-08-25T16:46:34.271Z,20.4
2022-08-25T16:47:50.510Z,20.7
2022-08-25T16:49:06.748Z,19.3
2022-08-25T16:50:22.979Z,22.4
2022-08-25T16:51:39.235Z,22.6
2022-08-25T16:52:55.468Z,19.6
2022-08-25T16:54:11.708Z,20.3
2022-08-25T16:55:26.979Z,21.8
2022-08-25T16:56:42.226Z,19.7
2022-08-25T16:57:58.459Z,17
2022-08-25T16:59:14.699Z,20.2
2022-08-25T17:00:30.957Z,19.9
2022-08-25T17:01:47.186Z,19.7
2022-08-25T17:03:03.429Z,21.6
2022-08-25T17:04:19.659Z,20.1
2022-08-25T17:05:35.898Z,19.9
2022-08-25T17:06:52.157Z,17.2
2022-08-25T17:08:08.383Z,19.3
2022-08-25T17:09:24.621Z,19.7
2022-08-25T17:10:40.865Z,18.5
2022-08-25T17:11:57.061Z,20
2022-08-25T17:13:12.318Z,20.8
2022-08-25T17:14:28.565Z,19.5
2022-08-25T17:15:44.799Z,19.7
2022-08-25T17:17:01.040Z,20.4
2022-08-25T17:18:17.280Z,21.1
2022-08-25T17:19:33.517Z,20
2022-08-25T17:20:49.770Z,21
2022-08-25T17:22:06.005Z,23
2022-08-25T17:23:22.246Z,21.4
2022-08-25T17:24:38.483Z,20.3
2022-08-25T17:25:54.730Z,22.7
2022-08-25T17:27:10.957Z,25.1
2022-08-25T17:28:27.217Z,18.1
2022-08-25T17:29:42.458Z,22.6
2022-08-25T17:32:14.941Z,22.6
2022-08-25T17:33:31.186Z,22.3
2022-08-25T17:34:47.423Z,22.9
2022-08-25T17:36:03.675Z,23.5
2022-08-25T17:37:19.902Z,21.7
2022-08-25T17:38:36.146Z,19.3
2022-08-25T17:39:52.378Z,24.2
2022-08-25T17:41:08.623Z,20.6
2022-08-25T17:42:24.858Z,21.4
2022-08-25T17:43:41.106Z,21.1
2022-08-25T17:44:57.349Z,20.9
2022-08-25T17:46:12.608Z,22.2
2022-08-25T17:47:28.840Z,20.6
2022-08-25T17:48:45.080Z,21.6
2022-08-25T17:50:01.327Z,22
2022-08-25T17:51:17.568Z,21.1
2022-08-25T17:52:33.810Z,19.6
2022-08-25T17:53:50.047Z,22.4
2022-08-25T17:55:06.288Z,20.8
2022-08-25T17:56:22.532Z,24.2
2022-08-25T17:57:38.768Z,23
2022-08-25T17:58:55.009Z,23.6
2022-08-25T18:00:11.250Z,23.4
2022-08-25T18:02:43.726Z,20.3
2022-08-25T18:05:15.230Z,23.2
2022-08-25T18:06:31.456Z,21.4
2022-08-25T18:07:47.698Z,20.4
2022-08-25T18:09:03.945Z,21.8
2022-08-25T18:10:20.178Z,21
2022-08-25T18:11:36.430Z,21.7